createdAt,value
2022-10-23T00:00:46.594Z,10.20
2022-10-23T00:02:07.230Z,9.90
2022-10-23T00:03:10.399Z,13.20
2022-10-23T00:04:25.541Z,8.70
2022-10-23T00:05:29.949Z,10.20
2022-10-23T00:06:34.988Z,8.60
2022-10-23T00:07:41.731Z,9.70
2022-10-23T00:08:51.591Z,8.70
2022-10-23T00:09:55.976Z,9.60
2022-10-23T00:10:59.223Z,9.20
2022-10-23T00:12:02.395Z,9.80
2022-10-23T00:13:05.621Z,8.40
2022-10-23T00:14:09.680Z,8.90
2022-10-23T00:15:13.038Z,8.60
2022-10-23T00:16:16.711Z,9.70
2022-10-23T00:17:19.910Z,10.00
2022-10-23T00:18:23.021Z,10.30
2022-10-23T00:19:28.908Z,10.10
2022-10-23T00:20:32.102Z,9.00
2022-10-23T00:21:35.573Z,9.00
2022-10-23T00:22:39.229Z,9.90
2022-10-23T00:23:42.771Z,11.70
2022-10-23T00:24:46.213Z,10.90
2022-10-23T00:25:49.661Z,11.90
2022-10-23T00:26:52.901Z,9.40
2022-10-23T00:27:56.988Z,9.60
2022-10-23T00:29:01.274Z,8.20
2022-10-23T00:30:06.041Z,9.30
2022-10-23T00:31:09.350Z,10.30
2022-10-23T00:32:12.542Z,12.20
2022-10-23T00:33:16.428Z,9.50
2022-10-23T00:34:19.972Z,9.70
2022-10-23T00:35:23.216Z,9.50
2022-10-23T00:36:26.754Z,9.60
2022-10-23T00:37:29.934Z,12.00
2022-10-23T00:38:34.749Z,9.60
2022-10-23T00:39:38.723Z,9.70
2022-10-23T00:40:44.195Z,8.70
2022-10-23T00:41:47.507Z,9.20
2022-10-23T00:42:52.221Z,8.90
2022-10-23T00:44:18.696Z,9.40
2022-10-23T00:45:27.882Z,12.10
2022-10-23T00:46:33.681Z,10.10
2022-10-23T00:47:37.026Z,8.70
2022-10-23T00:48:41.637Z,10.10
2022-10-23T00:49:45.029Z,10.10
2022-10-23T00:50:49.731Z,11.10
2022-10-23T00:52:05.183Z,9.80
2022-10-23T00:53:10.522Z,10.40
2022-10-23T00:54:24.517Z,13.50
2022-10-23T00:55:30.709Z,11.60
2022-10-23T00:56:38.587Z,9.40
2022-10-23T00:57:43.609Z,10.60
2022-10-23T00:58:46.997Z,10.70
2022-10-23T00:59:50.236Z,9.60
2022-10-23T01:00:56.458Z,13.10
2022-10-23T01:02:00.469Z,9.50
2022-10-23T01:03:04.506Z,10.20
2022-10-23T01:04:10.481Z,9.90
2022-10-23T01:05:14.513Z,10.50
2022-10-23T01:06:38.762Z,9.90
2022-10-23T01:07:51.117Z,8.50
2022-10-23T01:09:08.916Z,8.80
2022-10-23T01:10:32.412Z,11.10
2022-10-23T01:12:15.522Z,10.60
2022-10-23T01:13:49.812Z,10.20
2022-10-23T01:15:02.241Z,10.50
2022-10-23T01:16:12.439Z,9.10
2022-10-23T01:17:44.661Z,9.90
2022-10-23T01:19:23.751Z,9.90
2022-10-23T01:20:33.283Z,10.40
2022-10-23T01:21:51.490Z,9.30
2022-10-23T01:23:22.335Z,9.10
2022-10-23T01:24:56.285Z,9.10
2022-10-23T01:26:18.480Z,9.40
2022-10-23T01:27:25.256Z,9.00
2022-10-23T01:28:40.167Z,11.30
2022-10-23T01:30:12.060Z,8.90
2022-10-23T01:31:34.088Z,8.90
2022-10-23T01:32:49.211Z,10.90
2022-10-23T01:34:04.228Z,9.40
2022-10-23T01:35:16.487Z,9.40
2022-10-23T01:36:24.425Z,8.40
2022-10-23T01:37:59.148Z,9.60
2022-10-23T01:39:08.409Z,8.40
2022-10-23T01:40:30.056Z,10.50
2022-10-23T01:41:35.413Z,8.00
2022-10-23T01:42:47.585Z,10.50
2022-10-23T01:44:16.966Z,9.40
2022-10-23T01:45:32.915Z,10.20
2022-10-23T01:46:37.603Z,7.90
2022-10-23T01:47:44.420Z,9.00
2022-10-23T01:48:55.567Z,10.20
2022-10-23T01:50:00.292Z,7.90
2022-10-23T01:51:10.015Z,8.00
2022-10-23T01:52:15.228Z,8.30
2022-10-23T01:53:22.165Z,8.40
2022-10-23T01:54:31.752Z,8.60
2022-10-23T01:55:38.418Z,8.20
2022-10-23T01:56:46.286Z,8.30
2022-10-23T01:57:51.284Z,8.70
2022-10-23T01:58:57.717Z,8.30
2022-10-23T02:00:08.743Z,8.70
2022-10-23T02:01:30.643Z,9.50
2022-10-23T02:02:36.415Z,9.00
2022-10-23T02:03:41.151Z,7.60
2022-10-23T02:05:03.764Z,9.80
2022-10-23T02:06:07.720Z,11.20
2022-10-23T02:07:10.984Z,11.40
2022-10-23T02:08:14.396Z,7.40
2022-10-23T02:09:18.422Z,8.40
2022-10-23T02:10:27.122Z,8.60
2022-10-23T02:11:34.717Z,10.20
2022-10-23T02:12:59.829Z,8.50
2022-10-23T02:14:18.144Z,7.70
2022-10-23T02:15:42.831Z,8.40
2022-10-23T02:16:52.142Z,7.50
2022-10-23T02:18:10.192Z,9.00
2022-10-23T02:19:19.771Z,7.00
2022-10-23T02:20:37.260Z,8.30
2022-10-23T02:21:49.441Z,9.50
2022-10-23T02:23:19.911Z,8.30
2022-10-23T02:24:43.975Z,8.10
2022-10-23T02:25:56.768Z,9.20
2022-10-23T02:27:04.233Z,8.50
2022-10-23T02:28:14.561Z,8.40
2022-10-23T02:29:33.870Z,7.80
2022-10-23T02:30:43.070Z,9.30
2022-10-23T02:31:46.960Z,6.40
2022-10-23T02:32:55.260Z,7.90
2022-10-23T02:33:58.871Z,6.90
2022-10-23T02:35:03.083Z,9.60
2022-10-23T02:36:06.934Z,8.00
2022-10-23T02:37:10.256Z,7.10
2022-10-23T02:38:31.145Z,7.70
2022-10-23T02:39:34.395Z,7.40
2022-10-23T02:40:45.102Z,9.90
2022-10-23T02:42:22.378Z,7.40
2022-10-23T02:43:36.673Z,7.60
2022-10-23T02:44:55.376Z,12.80
2022-10-23T02:46:18.694Z,26.00
2022-10-23T02:47:43.432Z,11.40
2022-10-23T02:49:02.161Z,26.00
2022-10-23T02:50:33.837Z,19.50
2022-10-23T02:51:48.327Z,12.50
2022-10-23T02:53:06.693Z,33.20
2022-10-23T02:54:51.859Z,15.00
2022-10-23T02:56:07.803Z,217.90
2022-10-23T02:57:33.734Z,124.00
2022-10-23T02:59:06.652Z,33.80
2022-10-23T03:00:17.955Z,9.90
2022-10-23T03:01:27.624Z,10.20
2022-10-23T03:02:43.008Z,11.30
2022-10-23T03:04:03.271Z,34.70
2022-10-23T03:05:12.947Z,13.50
2022-10-23T03:06:16.642Z,13.60
2022-10-23T03:07:20.811Z,10.60
2022-10-23T03:08:25.329Z,8.70
2022-10-23T03:09:29.940Z,9.10
2022-10-23T03:10:33.280Z,88.60
2022-10-23T03:11:36.846Z,163.50
2022-10-23T03:12:41.114Z,58.30
2022-10-23T03:13:44.674Z,93.20
2022-10-23T03:14:47.941Z,72.60
2022-10-23T03:15:51.747Z,9.50
2022-10-23T03:16:54.976Z,70.80
2022-10-23T03:17:58.182Z,165.90
2022-10-23T03:19:01.685Z,137.00
2022-10-23T03:20:07.470Z,225.20
2022-10-23T03:21:12.147Z,115.00
2022-10-23T03:22:15.335Z,143.40
2022-10-23T03:23:18.614Z,32.80
2022-10-23T03:24:21.823Z,9.50
2022-10-23T03:25:24.921Z,41.10
2022-10-23T03:26:28.551Z,14.90
2022-10-23T03:27:32.022Z,11.10
2022-10-23T03:28:36.180Z,13.50
2022-10-23T03:29:39.434Z,26.10
2022-10-23T03:30:42.613Z,59.20
2022-10-23T03:31:46.044Z,40.00
2022-10-23T03:32:49.510Z,65.80
2022-10-23T03:33:52.731Z,28.70
2022-10-23T03:34:57.521Z,34.80
2022-10-23T03:36:02.963Z,10.20
2022-10-23T03:37:06.161Z,13.10
2022-10-23T03:38:09.553Z,9.00
2022-10-23T03:39:13.267Z,114.20
2022-10-23T03:40:18.633Z,26.20
2022-10-23T03:41:21.830Z,127.20
2022-10-23T03:42:25.013Z,87.20
2022-10-23T03:43:31.707Z,311.10
2022-10-23T03:44:35.326Z,106.90
2022-10-23T03:45:38.847Z,34.20
2022-10-23T03:46:42.216Z,63.90
2022-10-23T03:47:46.782Z,109.20
2022-10-23T03:48:50.583Z,105.40
2022-10-23T03:49:54.689Z,103.90
2022-10-23T03:50:59.730Z,185.90
2022-10-23T03:52:03.793Z,89.00
2022-10-23T03:53:06.983Z,112.60
2022-10-23T03:54:11.485Z,109.00
2022-10-23T03:55:14.794Z,95.60
2022-10-23T03:56:18.193Z,7.10
2022-10-23T03:57:21.540Z,7.20
2022-10-23T03:58:25.628Z,13.70
2022-10-23T03:59:29.505Z,7.20
2022-10-23T04:00:33.455Z,6.60
2022-10-23T04:01:37.297Z,7.90
2022-10-23T04:02:42.779Z,11.50
2022-10-23T04:03:46.508Z,143.50
2022-10-23T04:04:51.732Z,162.10
2022-10-23T04:05:55.614Z,107.80
2022-10-23T04:06:58.885Z,82.10
2022-10-23T04:08:02.632Z,14.90
2022-10-23T04:09:06.783Z,58.20
2022-10-23T04:10:10.547Z,6.30
2022-10-23T04:11:13.775Z,21.30
2022-10-23T04:12:26.061Z,13.40
2022-10-23T04:13:29.448Z,7.20
2022-10-23T04:14:33.156Z,6.40
2022-10-23T04:15:36.504Z,5.70
2022-10-23T04:16:39.961Z,6.30
2022-10-23T04:17:43.147Z,5.60
2022-10-23T04:18:46.323Z,6.30
2022-10-23T04:19:49.438Z,6.10
2022-10-23T04:20:53.020Z,5.90
2022-10-23T04:21:57.397Z,5.30
2022-10-23T04:23:00.816Z,5.50
2022-10-23T04:24:04.491Z,5.70
2022-10-23T04:25:08.748Z,28.00
2022-10-23T04:26:12.447Z,5.40
2022-10-23T04:27:15.806Z,66.30
2022-10-23T04:28:19.446Z,34.60
2022-10-23T04:29:24.701Z,24.10
2022-10-23T04:30:27.986Z,51.60
2022-10-23T04:31:31.882Z,28.50
2022-10-23T04:32:35.098Z,23.20
2022-10-23T04:33:38.252Z,27.40
2022-10-23T04:34:41.716Z,5.00
2022-10-23T04:35:45.251Z,18.90
2022-10-23T04:36:48.498Z,7.10
2022-10-23T04:37:51.690Z,5.30
2022-10-23T04:38:54.972Z,5.10
2022-10-23T04:39:58.087Z,5.20
2022-10-23T04:41:03.811Z,4.90
2022-10-23T04:42:07.123Z,7.80
2022-10-23T04:43:12.087Z,5.50
2022-10-23T04:44:18.069Z,5.30
2022-10-23T04:45:21.806Z,5.70
2022-10-23T04:46:25.051Z,37.50
2022-10-23T04:47:28.610Z,19.90
2022-10-23T04:48:34.338Z,15.70
2022-10-23T04:49:56.603Z,22.50
2022-10-23T04:51:18.693Z,11.60
2022-10-23T04:52:30.523Z,31.30
2022-10-23T04:54:00.055Z,4.10
2022-10-23T04:55:32.777Z,5.50
2022-10-23T04:57:02.142Z,12.90
2022-10-23T04:58:18.692Z,17.00
2022-10-23T04:59:21.925Z,4.50
2022-10-23T05:00:25.889Z,16.90
2022-10-23T05:01:31.419Z,12.70
2022-10-23T05:02:35.622Z,6.20
2022-10-23T05:03:38.967Z,4.80
2022-10-23T05:04:44.056Z,3.10
2022-10-23T05:06:06.689Z,3.30
2022-10-23T05:07:45.844Z,30.70
2022-10-23T05:09:09.568Z,40.00
2022-10-23T05:10:27.057Z,32.50
2022-10-23T05:11:41.951Z,21.70
2022-10-23T05:12:46.102Z,16.90
2022-10-23T05:13:49.406Z,34.40
2022-10-23T05:14:52.681Z,34.70
2022-10-23T05:15:58.798Z,55.70
2022-10-23T05:17:12.691Z,7.50
2022-10-23T05:18:18.633Z,5.40
2022-10-23T05:19:26.692Z,8.30
2022-10-23T05:20:34.252Z,4.80
2022-10-23T05:21:40.021Z,20.10
2022-10-23T05:22:46.286Z,12.00
2022-10-23T05:23:51.090Z,4.30
2022-10-23T05:24:54.932Z,7.70
2022-10-23T05:26:00.863Z,10.90
2022-10-23T05:27:04.175Z,8.70
2022-10-23T05:28:08.314Z,3.70
2022-10-23T05:29:11.936Z,3.00
2022-10-23T05:30:17.385Z,3.80
2022-10-23T05:31:23.647Z,6.30
2022-10-23T05:32:31.372Z,6.50
2022-10-23T05:33:36.398Z,3.20
2022-10-23T05:34:40.648Z,3.20
2022-10-23T05:35:45.521Z,3.30
2022-10-23T05:36:51.445Z,3.70
2022-10-23T05:37:56.062Z,3.40
2022-10-23T05:39:02.396Z,3.20
2022-10-23T05:40:06.331Z,3.90
2022-10-23T05:41:10.633Z,5.00
2022-10-23T05:42:13.948Z,15.30
2022-10-23T05:43:18.791Z,10.60
2022-10-23T05:44:28.673Z,12.00
2022-10-23T05:46:05.348Z,33.80
2022-10-23T05:47:27.320Z,20.20
2022-10-23T05:48:56.428Z,4.60
2022-10-23T05:50:18.534Z,13.30
2022-10-23T05:51:23.355Z,3.60
2022-10-23T05:52:34.886Z,7.10
2022-10-23T05:53:56.809Z,14.10
2022-10-23T05:55:17.834Z,29.00
2022-10-23T05:56:23.705Z,26.50
2022-10-23T05:57:37.427Z,5.60
2022-10-23T05:58:44.177Z,26.90
2022-10-23T06:00:02.762Z,14.20
2022-10-23T06:01:18.690Z,5.20
2022-10-23T06:02:31.400Z,3.30
2022-10-23T06:03:39.894Z,5.90
2022-10-23T06:04:45.781Z,17.60
2022-10-23T06:06:08.506Z,11.70
2022-10-23T06:07:24.592Z,18.10
2022-10-23T06:08:28.302Z,8.90
2022-10-23T06:09:31.603Z,8.70
2022-10-23T06:10:36.924Z,14.30
2022-10-23T06:11:42.377Z,39.10
2022-10-23T06:12:49.643Z,13.20
2022-10-23T06:13:53.789Z,17.70
2022-10-23T06:14:59.199Z,18.80
2022-10-23T06:16:20.624Z,16.40
2022-10-23T06:17:24.366Z,23.40
2022-10-23T06:18:27.626Z,40.70
2022-10-23T06:19:41.677Z,34.70
2022-10-23T06:20:44.901Z,38.40
2022-10-23T06:21:53.651Z,30.40
2022-10-23T06:23:00.131Z,31.30
2022-10-23T06:24:21.412Z,13.60
2022-10-23T06:25:28.912Z,29.70
2022-10-23T06:26:32.563Z,18.20
2022-10-23T06:27:47.963Z,31.40
2022-10-23T06:28:52.056Z,9.50
2022-10-23T06:29:57.641Z,22.80
2022-10-23T06:31:05.656Z,18.00
2022-10-23T06:32:08.951Z,23.80
2022-10-23T06:33:13.193Z,17.30
2022-10-23T06:34:16.547Z,26.20
2022-10-23T06:35:21.646Z,18.50
2022-10-23T06:36:25.938Z,17.50
2022-10-23T06:37:34.766Z,15.50
2022-10-23T06:40:27.395Z,40.40
2022-10-23T06:41:36.691Z,9.20
2022-10-23T06:42:40.306Z,10.30
2022-10-23T06:44:02.433Z,12.90
2022-10-23T06:45:23.139Z,17.40
2022-10-23T06:47:00.563Z,10.90
2022-10-23T06:48:23.758Z,40.70
2022-10-23T06:49:40.227Z,20.00
2022-10-23T06:50:43.598Z,31.10
2022-10-23T06:51:49.023Z,18.60
2022-10-23T06:52:54.021Z,8.30
2022-10-23T06:53:58.503Z,16.30
2022-10-23T06:55:20.560Z,12.50
2022-10-23T06:56:25.456Z,7.40
2022-10-23T06:57:28.951Z,8.30
2022-10-23T06:58:33.768Z,8.50
2022-10-23T06:59:40.264Z,4.20
2022-10-23T07:00:44.759Z,7.80
2022-10-23T07:01:48.313Z,6.00
2022-10-23T07:02:52.936Z,2.70
2022-10-23T07:03:56.282Z,3.90
2022-10-23T07:05:02.207Z,3.60
2022-10-23T07:06:10.170Z,3.60
2022-10-23T07:07:14.083Z,3.30
2022-10-23T07:08:22.037Z,7.10
2022-10-23T07:09:26.758Z,4.50
2022-10-23T07:10:29.906Z,3.80
2022-10-23T07:11:35.291Z,3.80
2022-10-23T07:12:38.582Z,3.10
2022-10-23T07:14:01.627Z,4.80
2022-10-23T07:15:05.691Z,2.70
2022-10-23T07:16:21.098Z,3.70
2022-10-23T07:17:24.875Z,3.60
2022-10-23T07:18:29.218Z,3.30
2022-10-23T07:19:51.269Z,3.10
2022-10-23T07:20:58.749Z,3.00
2022-10-23T07:22:02.087Z,3.80
2022-10-23T07:23:25.987Z,2.60
2022-10-23T07:24:31.081Z,3.90
2022-10-23T07:25:35.009Z,2.70
2022-10-23T07:26:38.246Z,3.30
2022-10-23T07:27:41.881Z,2.80
2022-10-23T07:28:48.656Z,8.50
2022-10-23T07:29:54.456Z,7.80
2022-10-23T07:30:59.654Z,7.70
2022-10-23T07:33:31.650Z,4.30
2022-10-23T07:34:43.509Z,4.10
2022-10-23T07:36:14.688Z,3.20
2022-10-23T07:37:18.022Z,3.50
2022-10-23T07:38:21.517Z,3.50
2022-10-23T07:39:29.491Z,3.60
2022-10-23T07:40:33.232Z,4.10
2022-10-23T07:41:36.462Z,4.10
2022-10-23T07:42:39.668Z,3.10
2022-10-23T07:43:44.074Z,3.60
2022-10-23T07:44:47.218Z,3.20
2022-10-23T07:45:50.786Z,3.50
2022-10-23T07:47:10.361Z,3.30
2022-10-23T07:48:15.559Z,4.00
2022-10-23T07:49:33.744Z,3.80
2022-10-23T07:50:38.832Z,3.50
2022-10-23T07:51:42.389Z,4.30
2022-10-23T07:52:45.849Z,4.30
2022-10-23T07:53:52.736Z,3.90
2022-10-23T07:55:08.507Z,3.50
2022-10-23T07:56:30.055Z,3.10
2022-10-23T07:57:50.357Z,3.10
2022-10-23T07:59:12.955Z,3.50
2022-10-23T08:00:16.485Z,3.30
2022-10-23T08:01:34.883Z,4.40
2022-10-23T08:02:41.572Z,3.70
2022-10-23T08:03:45.809Z,3.90
2022-10-23T08:04:50.547Z,4.40
2022-10-23T08:06:08.162Z,4.20
2022-10-23T08:07:11.379Z,4.20
2022-10-23T08:08:17.573Z,4.30
2022-10-23T08:09:22.946Z,3.90
2022-10-23T08:10:26.316Z,3.30
2022-10-23T08:11:35.385Z,3.00
2022-10-23T08:12:39.177Z,3.40
2022-10-23T08:13:43.956Z,4.10
2022-10-23T08:14:47.437Z,3.00
2022-10-23T08:15:52.752Z,3.80
2022-10-23T08:17:15.873Z,3.50
2022-10-23T08:18:38.019Z,2.70
2022-10-23T08:19:46.589Z,2.60
2022-10-23T08:20:53.442Z,3.20
2022-10-23T08:21:57.489Z,3.80
2022-10-23T08:23:00.888Z,4.30
2022-10-23T08:24:05.736Z,2.60
2022-10-23T08:25:09.423Z,2.70
2022-10-23T08:26:12.958Z,2.90
2022-10-23T08:27:17.376Z,3.10
2022-10-23T08:28:24.625Z,2.90
2022-10-23T08:29:31.993Z,2.50
2022-10-23T08:30:36.835Z,2.40
2022-10-23T08:31:40.187Z,3.10
2022-10-23T08:33:07.345Z,4.30
2022-10-23T08:34:11.447Z,2.30
2022-10-23T08:35:14.978Z,3.80
2022-10-23T08:36:27.554Z,3.20
2022-10-23T08:37:31.044Z,4.90
2022-10-23T08:38:35.831Z,4.60
2022-10-23T08:39:40.823Z,3.80
2022-10-23T08:40:51.475Z,3.30
2022-10-23T08:42:24.919Z,3.80
2022-10-23T08:43:47.183Z,3.70
2022-10-23T08:45:33.279Z,2.90
2022-10-23T08:46:46.307Z,3.40
2022-10-23T08:48:25.836Z,3.40
2022-10-23T08:50:05.329Z,3.30
2022-10-23T08:51:16.638Z,3.30
2022-10-23T08:53:53.126Z,4.00
2022-10-23T08:55:15.283Z,2.70
2022-10-23T08:56:23.452Z,3.70
2022-10-23T08:57:35.545Z,2.60
2022-10-23T08:58:57.344Z,4.50
2022-10-23T09:00:08.151Z,4.10
2022-10-23T09:01:24.866Z,2.60
2022-10-23T09:02:38.769Z,1.90
2022-10-23T09:03:43.698Z,4.30
2022-10-23T09:04:50.223Z,3.40
2022-10-23T09:06:38.117Z,3.40
2022-10-23T09:08:17.963Z,2.50
2022-10-23T09:09:26.792Z,3.20
2022-10-23T09:11:03.519Z,2.40
2022-10-23T09:12:17.870Z,4.60
2022-10-23T09:13:43.025Z,2.80
2022-10-23T09:15:14.981Z,4.20
2022-10-23T09:16:43.758Z,2.00
2022-10-23T09:17:48.154Z,3.70
2022-10-23T09:18:52.525Z,2.70
2022-10-23T09:20:13.938Z,2.60
2022-10-23T09:21:17.291Z,2.40
2022-10-23T09:22:20.941Z,3.30
2022-10-23T09:23:27.346Z,3.40
2022-10-23T09:24:31.934Z,1.90
2022-10-23T09:25:39.161Z,2.20
2022-10-23T09:26:43.076Z,3.30
2022-10-23T09:27:54.767Z,2.60
2022-10-23T09:29:15.031Z,1.90
2022-10-23T09:30:38.152Z,2.40
2022-10-23T09:31:52.597Z,2.90
2022-10-23T09:32:56.426Z,2.60
2022-10-23T09:34:01.922Z,2.40
2022-10-23T09:35:06.388Z,2.50
2022-10-23T09:36:14.010Z,1.30
2022-10-23T09:37:28.082Z,2.00
2022-10-23T09:38:35.957Z,1.90
2022-10-23T09:39:39.303Z,2.40
2022-10-23T09:40:44.319Z,1.80
2022-10-23T09:41:47.653Z,3.60
2022-10-23T09:42:54.189Z,2.10
2022-10-23T09:44:17.978Z,2.50
2022-10-23T09:45:27.488Z,2.00
2022-10-23T09:46:44.760Z,2.30
2022-10-23T09:47:48.031Z,2.50
2022-10-23T09:48:59.906Z,2.40
2022-10-23T09:50:20.551Z,1.10
2022-10-23T09:51:24.288Z,2.00
2022-10-23T09:52:37.151Z,3.10
2022-10-23T09:54:00.860Z,1.90
2022-10-23T09:55:20.755Z,2.80
2022-10-23T09:56:24.937Z,3.30
2022-10-23T09:57:40.706Z,1.50
2022-10-23T09:58:58.022Z,1.90
2022-10-23T10:00:15.683Z,4.00
2022-10-23T10:01:28.191Z,2.30
2022-10-23T10:02:37.931Z,2.40
2022-10-23T10:03:59.854Z,1.90
2022-10-23T10:05:23.832Z,3.10
2022-10-23T10:06:32.792Z,3.20
2022-10-23T10:07:36.900Z,2.30
2022-10-23T10:08:47.070Z,3.50
2022-10-23T10:09:52.285Z,3.80
2022-10-23T10:11:01.890Z,2.80
2022-10-23T10:12:20.021Z,3.00
2022-10-23T10:13:38.642Z,1.60
2022-10-23T10:14:53.429Z,2.20
2022-10-23T10:16:04.021Z,2.50
2022-10-23T10:17:20.011Z,3.00
2022-10-23T10:18:33.212Z,1.80
2022-10-23T10:19:54.953Z,2.50
2022-10-23T10:21:12.108Z,2.00
2022-10-23T10:22:24.604Z,1.50
2022-10-23T10:23:42.007Z,2.80
2022-10-23T10:24:55.885Z,1.60
2022-10-23T10:26:17.303Z,2.00
2022-10-23T10:27:26.710Z,3.60
2022-10-23T10:28:49.291Z,2.10
2022-10-23T10:29:58.474Z,3.40
2022-10-23T10:31:13.754Z,3.10
2022-10-23T10:32:27.637Z,1.90
2022-10-23T10:34:14.166Z,1.30
2022-10-23T10:35:56.335Z,1.90
2022-10-23T10:37:13.821Z,1.40
2022-10-23T10:38:44.428Z,2.10
2022-10-23T10:40:09.374Z,3.00
2022-10-23T10:41:37.887Z,1.30
2022-10-23T10:43:08.496Z,4.60
2022-10-23T10:44:31.566Z,1.90
2022-10-23T10:45:39.859Z,1.80
2022-10-23T10:46:48.996Z,2.50
2022-10-23T10:48:01.546Z,2.80
2022-10-23T10:49:27.188Z,2.40
2022-10-23T10:51:30.197Z,2.80
2022-10-23T10:52:36.918Z,1.60
2022-10-23T10:53:40.476Z,3.40
2022-10-23T10:54:59.128Z,1.50
2022-10-23T10:56:04.154Z,3.50
2022-10-23T10:57:28.822Z,2.70
2022-10-23T10:58:44.108Z,3.70
2022-10-23T10:59:51.458Z,2.90
2022-10-23T11:01:02.163Z,3.70
2022-10-23T11:02:27.088Z,2.30
2022-10-23T11:03:39.171Z,1.90
2022-10-23T11:05:12.713Z,2.80
2022-10-23T11:06:20.954Z,4.00
2022-10-23T11:07:29.927Z,1.80
2022-10-23T11:08:49.899Z,3.00
2022-10-23T11:10:05.042Z,2.40
2022-10-23T11:11:31.192Z,2.90
2022-10-23T11:12:34.365Z,2.10
2022-10-23T11:13:42.685Z,2.50
2022-10-23T11:14:46.543Z,1.60
2022-10-23T11:17:19.223Z,1.80
2022-10-23T11:18:28.779Z,4.20
2022-10-23T11:19:57.866Z,1.60
2022-10-23T11:21:20.007Z,2.80
2022-10-23T11:22:49.681Z,3.20
2022-10-23T11:24:11.675Z,3.90
2022-10-23T11:25:50.531Z,2.00
2022-10-23T11:27:08.636Z,2.60
2022-10-23T11:28:18.575Z,2.20
2022-10-23T11:29:46.312Z,2.00
2022-10-23T11:31:11.706Z,2.90
2022-10-23T11:33:00.124Z,1.80
2022-10-23T11:34:32.121Z,1.50
2022-10-23T11:35:57.796Z,2.10
2022-10-23T11:37:01.862Z,1.70
2022-10-23T11:38:18.174Z,1.90
2022-10-23T11:39:26.152Z,1.70
2022-10-23T11:40:32.478Z,4.10
2022-10-23T11:41:35.764Z,1.90
2022-10-23T11:42:42.367Z,2.60
2022-10-23T11:43:52.250Z,2.00
2022-10-23T11:44:55.355Z,3.80
2022-10-23T11:46:01.688Z,2.60
2022-10-23T11:47:26.172Z,2.10
2022-10-23T11:48:39.321Z,3.00
2022-10-23T11:49:42.585Z,3.80
2022-10-23T11:50:46.258Z,2.00
2022-10-23T11:52:00.497Z,2.00
2022-10-23T11:53:23.784Z,2.00
2022-10-23T11:54:27.622Z,2.10
2022-10-23T11:55:32.431Z,2.40
2022-10-23T11:56:39.000Z,3.10
2022-10-23T11:57:42.396Z,1.70
2022-10-23T11:58:51.060Z,2.30
2022-10-23T11:59:56.239Z,1.70
2022-10-23T12:01:04.769Z,1.60
2022-10-23T12:02:43.257Z,3.40
2022-10-23T12:04:11.673Z,2.10
2022-10-23T12:06:50.315Z,1.90
2022-10-23T12:08:03.857Z,3.20
2022-10-23T12:09:22.250Z,2.10
2022-10-23T12:10:35.223Z,2.00
2022-10-23T12:11:44.775Z,2.80
2022-10-23T12:13:29.025Z,2.20
2022-10-23T12:14:37.689Z,2.30
2022-10-23T12:15:56.065Z,2.20
2022-10-23T12:17:03.191Z,2.70
2022-10-23T12:18:18.234Z,1.70
2022-10-23T12:19:24.252Z,3.70
2022-10-23T12:20:36.918Z,1.80
2022-10-23T12:21:41.071Z,3.10
2022-10-23T12:22:47.196Z,2.20
2022-10-23T12:24:10.352Z,3.60
2022-10-23T12:25:23.986Z,3.30
2022-10-23T12:26:56.748Z,2.80
2022-10-23T12:28:38.532Z,2.90
2022-10-23T12:30:09.836Z,4.00
2022-10-23T12:31:31.206Z,2.30
2022-10-23T12:32:58.336Z,2.60
2022-10-23T12:34:26.371Z,1.50
2022-10-23T12:35:57.349Z,2.10
2022-10-23T12:37:25.313Z,3.90
2022-10-23T12:38:33.858Z,1.90
2022-10-23T12:39:40.524Z,4.00
2022-10-23T12:40:52.482Z,2.80
2022-10-23T12:41:56.722Z,3.10
2022-10-23T12:43:01.501Z,1.90
2022-10-23T12:44:11.029Z,3.80
2022-10-23T12:45:21.711Z,1.70
2022-10-23T12:46:30.993Z,1.90
2022-10-23T12:47:34.464Z,2.10
2022-10-23T12:48:58.971Z,3.20
2022-10-23T12:50:02.091Z,1.30
2022-10-23T12:51:05.489Z,4.20
2022-10-23T12:52:17.813Z,2.00
2022-10-23T12:53:23.221Z,1.40
2022-10-23T12:54:27.697Z,5.30
2022-10-23T12:55:46.917Z,1.70
2022-10-23T12:56:50.477Z,2.10
2022-10-23T12:57:54.921Z,4.30
2022-10-23T12:59:01.556Z,1.40
2022-10-23T13:00:16.293Z,2.10
2022-10-23T13:01:40.436Z,2.60
2022-10-23T13:03:01.187Z,3.80
2022-10-23T13:04:11.023Z,2.40
2022-10-23T13:05:19.581Z,4.60
2022-10-23T13:06:23.137Z,2.90
2022-10-23T13:07:29.851Z,2.00
2022-10-23T13:08:42.517Z,1.30
2022-10-23T13:10:19.876Z,2.50
2022-10-23T13:11:33.491Z,2.70
2022-10-23T13:12:40.540Z,1.60
2022-10-23T13:13:43.979Z,1.40
2022-10-23T13:15:16.460Z,1.40
2022-10-23T13:16:25.853Z,2.00
2022-10-23T13:17:41.559Z,1.90
2022-10-23T13:18:45.544Z,2.20
2022-10-23T13:19:48.726Z,1.60
2022-10-23T13:20:51.954Z,2.30
2022-10-23T13:21:55.357Z,3.20
2022-10-23T13:23:27.068Z,3.00
2022-10-23T13:24:31.546Z,3.50
2022-10-23T13:25:37.100Z,3.10
2022-10-23T13:26:47.792Z,1.30
2022-10-23T13:27:52.012Z,3.70
2022-10-23T13:28:55.565Z,1.40
2022-10-23T13:29:58.699Z,4.30
2022-10-23T13:31:03.451Z,2.00
2022-10-23T13:32:22.303Z,1.70
2022-10-23T13:33:34.481Z,1.90
2022-10-23T13:34:37.681Z,1.20
2022-10-23T13:35:41.286Z,4.30
2022-10-23T13:36:54.201Z,2.90
2022-10-23T13:38:08.175Z,2.80
2022-10-23T13:39:11.455Z,1.80
2022-10-23T13:40:26.679Z,3.40
2022-10-23T13:41:40.463Z,2.80
2022-10-23T13:42:43.756Z,3.50
2022-10-23T13:43:48.676Z,2.00
2022-10-23T13:44:52.232Z,2.00
2022-10-23T13:45:55.485Z,2.70
2022-10-23T13:47:01.006Z,2.70
2022-10-23T13:48:13.876Z,3.30
2022-10-23T13:49:17.268Z,1.80
2022-10-23T13:50:20.951Z,3.00
2022-10-23T13:51:37.638Z,1.50
2022-10-23T13:52:44.137Z,4.00
2022-10-23T13:53:48.001Z,2.80
2022-10-23T13:54:54.308Z,2.20
2022-10-23T13:55:58.765Z,3.00
2022-10-23T13:57:02.139Z,2.10
2022-10-23T13:58:05.537Z,1.30
2022-10-23T13:59:11.001Z,1.40
2022-10-23T14:00:15.490Z,2.80
2022-10-23T14:01:30.495Z,3.40
2022-10-23T14:02:33.837Z,1.90
2022-10-23T14:03:37.125Z,2.80
2022-10-23T14:04:40.444Z,3.10
2022-10-23T14:05:43.637Z,1.20
2022-10-23T14:06:48.786Z,2.00
2022-10-23T14:07:52.270Z,1.50
2022-10-23T14:08:55.497Z,3.30
2022-10-23T14:09:58.833Z,2.60
2022-10-23T14:11:02.140Z,1.80
2022-10-23T14:12:05.748Z,2.30
2022-10-23T14:13:09.272Z,3.40
2022-10-23T14:14:12.552Z,5.70
2022-10-23T14:15:17.945Z,2.30
2022-10-23T14:16:21.823Z,1.80
2022-10-23T14:17:25.115Z,1.70
2022-10-23T14:18:28.890Z,2.50
2022-10-23T14:19:34.339Z,2.60
2022-10-23T14:20:39.306Z,4.00
2022-10-23T14:21:42.516Z,2.30
2022-10-23T14:22:48.259Z,3.80
2022-10-23T14:23:52.916Z,2.80
2022-10-23T14:24:56.228Z,2.20
2022-10-23T14:26:07.164Z,4.10
2022-10-23T14:27:12.459Z,2.30
2022-10-23T14:28:15.700Z,2.70
2022-10-23T14:29:23.872Z,2.60
2022-10-23T14:30:28.351Z,2.30
2022-10-23T14:31:31.935Z,2.80
2022-10-23T14:32:35.178Z,1.80
2022-10-23T14:33:39.352Z,1.50
2022-10-23T14:34:44.541Z,1.70
2022-10-23T14:35:51.113Z,1.70
2022-10-23T14:37:08.087Z,2.60
2022-10-23T14:38:12.583Z,2.90
2022-10-23T14:39:16.224Z,1.90
2022-10-23T14:40:19.401Z,2.10
2022-10-23T14:41:22.890Z,1.40
2022-10-23T14:42:31.715Z,4.10
2022-10-23T14:43:38.757Z,3.30
2022-10-23T14:44:43.706Z,3.60
2022-10-23T14:45:50.138Z,4.00
2022-10-23T14:46:53.571Z,2.10
2022-10-23T14:47:56.848Z,2.80
2022-10-23T14:49:02.473Z,4.60
2022-10-23T14:50:06.717Z,2.40
2022-10-23T14:51:19.681Z,3.40
2022-10-23T14:52:24.047Z,2.00
2022-10-23T14:53:27.273Z,1.90
2022-10-23T14:54:33.233Z,2.50
2022-10-23T14:55:36.548Z,2.60
2022-10-23T14:56:40.968Z,2.00
2022-10-23T14:57:44.550Z,2.80
2022-10-23T14:58:48.289Z,1.30
2022-10-23T14:59:51.956Z,2.10
2022-10-23T15:00:59.825Z,1.60
2022-10-23T15:02:04.181Z,1.60
2022-10-23T15:03:07.631Z,3.30
2022-10-23T15:04:11.302Z,2.50
2022-10-23T15:05:14.989Z,2.50
2022-10-23T15:06:18.487Z,2.80
2022-10-23T15:07:21.980Z,2.90
2022-10-23T15:08:25.322Z,2.70
2022-10-23T15:09:30.321Z,3.20
2022-10-23T15:10:33.647Z,1.90
2022-10-23T15:11:37.116Z,2.90
2022-10-23T15:12:43.839Z,3.70
2022-10-23T15:13:47.265Z,3.20
2022-10-23T15:14:50.512Z,7.20
2022-10-23T15:16:08.691Z,2.70
2022-10-23T15:17:15.771Z,1.20
2022-10-23T15:18:19.732Z,2.10
2022-10-23T15:19:23.299Z,2.80
2022-10-23T15:20:29.947Z,3.60
2022-10-23T15:21:33.098Z,1.50
2022-10-23T15:22:36.642Z,1.80
2022-10-23T15:23:42.173Z,2.90
2022-10-23T15:24:48.077Z,3.10
2022-10-23T15:26:03.507Z,2.50
2022-10-23T15:27:06.970Z,3.00
2022-10-23T15:28:10.189Z,2.10
2022-10-23T15:29:14.926Z,2.40
2022-10-23T15:30:18.809Z,1.90
2022-10-23T15:31:43.131Z,2.30
2022-10-23T15:32:46.575Z,2.60
2022-10-23T15:33:50.125Z,3.30
2022-10-23T15:34:54.046Z,2.00
2022-10-23T15:35:57.597Z,2.70